sensor_id;sensor_type;location;lat;lon;timestamp;P1;durP1;ratioP1;P2;durP2;ratioP2
7795;SDS011;3942;51.518;6.912;2023-04-06T00:00:43;23.30;;;11.23;;
7795;SDS011;3942;51.518;6.912;2023-04-06T00:05:46;21.08;;;10.68;;
7795;SDS011;3942;51.518;6.912;2023-04-06T00:10:49;20.95;;;10.07;;
7795;SDS011;3942;51.518;6.912;2023-04-06T00:15:52;19.63;;;10.27;;
7795;SDS011;3942;51.518;6.912;2023-04-06T00:20:54;18.00;;;9.88;;
7795;SDS011;3942;51.518;6.912;2023-04-06T00:25:57;19.48;;;10.55;;
7795;SDS011;3942;51.518;6.912;2023-04-06T00:31:00;22.27;;;10.63;;
7795;SDS011;3942;51.518;6.912;2023-04-06T00:36:02;21.52;;;10.57;;
7795;SDS011;3942;51.518;6.912;2023-04-06T00:41:07;17.23;;;10.15;;
7795;SDS011;3942;51.518;6.912;2023-04-06T00:46:09;19.63;;;9.95;;
7795;SDS011;3942;51.518;6.912;2023-04-06T00:51:11;23.23;;;11.13;;
7795;SDS011;3942;51.518;6.912;2023-04-06T00:56:15;18.50;;;10.63;;
7795;SDS011;3942;51.518;6.912;2023-04-06T01:01:17;21.60;;;10.63;;
7795;SDS011;3942;51.518;6.912;2023-04-06T01:06:19;19.85;;;11.35;;
7795;SDS011;3942;51.518;6.912;2023-04-06T01:11:23;24.73;;;11.90;;
7795;SDS011;3942;51.518;6.912;2023-04-06T01:16:26;21.73;;;11.40;;
7795;SDS011;3942;51.518;6.912;2023-04-06T01:21:28;20.23;;;11.10;;
7795;SDS011;3942;51.518;6.912;2023-04-06T01:26:31;23.23;;;11.02;;
7795;SDS011;3942;51.518;6.912;2023-04-06T01:31:33;19.98;;;10.57;;
7795;SDS011;3942;51.518;6.912;2023-04-06T01:36:36;25.27;;;11.75;;
7795;SDS011;3942;51.518;6.912;2023-04-06T01:41:39;23.20;;;11.23;;
7795;SDS011;3942;51.518;6.912;2023-04-06T01:46:41;20.17;;;10.32;;
7795;SDS011;3942;51.518;6.912;2023-04-06T01:51:44;23.10;;;10.93;;
7795;SDS011;3942;51.518;6.912;2023-04-06T01:56:47;20.88;;;10.63;;
7795;SDS011;3942;51.518;6.912;2023-04-06T02:01:51;19.15;;;9.68;;
7795;SDS011;3942;51.518;6.912;2023-04-06T02:06:53;20.20;;;11.55;;
7795;SDS011;3942;51.518;6.912;2023-04-06T02:11:57;15.75;;;9.48;;
7795;SDS011;3942;51.518;6.912;2023-04-06T02:17:00;17.73;;;10.45;;
7795;SDS011;3942;51.518;6.912;2023-04-06T02:22:02;20.52;;;10.23;;
7795;SDS011;3942;51.518;6.912;2023-04-06T02:27:06;18.65;;;9.82;;
7795;SDS011;3942;51.518;6.912;2023-04-06T02:32:08;17.15;;;9.25;;
7795;SDS011;3942;51.518;6.912;2023-04-06T02:37:10;16.92;;;9.07;;
7795;SDS011;3942;51.518;6.912;2023-04-06T02:42:13;16.73;;;9.25;;
7795;SDS011;3942;51.518;6.912;2023-04-06T02:47:16;23.00;;;10.15;;
7795;SDS011;3942;51.518;6.912;2023-04-06T02:52:18;15.95;;;9.15;;
7795;SDS011;3942;51.518;6.912;2023-04-06T02:57:21;17.00;;;9.50;;
7795;SDS011;3942;51.518;6.912;2023-04-06T03:02:23;18.92;;;10.57;;
7795;SDS011;3942;51.518;6.912;2023-04-06T03:07:26;17.65;;;10.02;;
7795;SDS011;3942;51.518;6.912;2023-04-06T03:12:29;20.30;;;10.80;;
7795;SDS011;3942;51.518;6.912;2023-04-06T03:17:31;20.17;;;9.57;;
7795;SDS011;3942;51.518;6.912;2023-04-06T03:22:34;17.90;;;10.75;;
7795;SDS011;3942;51.518;6.912;2023-04-06T03:27:37;22.23;;;11.25;;
7795;SDS011;3942;51.518;6.912;2023-04-06T03:32:40;18.02;;;10.98;;
7795;SDS011;3942;51.518;6.912;2023-04-06T03:37:42;22.10;;;11.05;;
7795;SDS011;3942;51.518;6.912;2023-04-06T03:42:46;19.48;;;11.88;;
7795;SDS011;3942;51.518;6.912;2023-04-06T03:47:48;18.55;;;10.40;;
7795;SDS011;3942;51.518;6.912;2023-04-06T03:52:50;23.15;;;12.23;;
7795;SDS011;3942;51.518;6.912;2023-04-06T03:57:53;20.75;;;11.02;;
7795;SDS011;3942;51.518;6.912;2023-04-06T04:02:56;23.48;;;11.43;;
7795;SDS011;3942;51.518;6.912;2023-04-06T04:07:58;19.85;;;10.52;;
7795;SDS011;3942;51.518;6.912;2023-04-06T04:13:01;18.73;;;10.73;;
7795;SDS011;3942;51.518;6.912;2023-04-06T04:18:04;48.95;;;23.15;;
7795;SDS011;3942;51.518;6.912;2023-04-06T04:23:06;73.35;;;29.80;;
7795;SDS011;3942;51.518;6.912;2023-04-06T04:28:10;32.72;;;17.05;;
7795;SDS011;3942;51.518;6.912;2023-04-06T04:33:12;20.95;;;12.05;;
7795;SDS011;3942;51.518;6.912;2023-04-06T04:38:14;17.80;;;9.82;;
7795;SDS011;3942;51.518;6.912;2023-04-06T04:43:17;19.30;;;10.32;;
7795;SDS011;3942;51.518;6.912;2023-04-06T04:48:20;24.85;;;11.48;;
7795;SDS011;3942;51.518;6.912;2023-04-06T04:53:22;24.45;;;9.70;;
7795;SDS011;3942;51.518;6.912;2023-04-06T04:58:25;16.35;;;9.13;;
7795;SDS011;3942;51.518;6.912;2023-04-06T05:03:27;17.15;;;9.50;;
7795;SDS011;3942;51.518;6.912;2023-04-06T05:08:29;26.20;;;11.75;;
7795;SDS011;3942;51.518;6.912;2023-04-06T05:13:32;17.60;;;9.57;;
7795;SDS011;3942;51.518;6.912;2023-04-06T05:18:34;16.13;;;9.48;;
7795;SDS011;3942;51.518;6.912;2023-04-06T05:23:36;23.58;;;10.23;;
7795;SDS011;3942;51.518;6.912;2023-04-06T05:28:40;15.00;;;8.48;;
7795;SDS011;3942;51.518;6.912;2023-04-06T05:33:44;21.92;;;9.15;;
7795;SDS011;3942;51.518;6.912;2023-04-06T05:38:46;14.68;;;9.15;;
7795;SDS011;3942;51.518;6.912;2023-04-06T05:43:51;15.52;;;10.02;;
7795;SDS011;3942;51.518;6.912;2023-04-06T05:48:53;17.50;;;9.07;;
7795;SDS011;3942;51.518;6.912;2023-04-06T05:53:55;18.15;;;9.55;;
7795;SDS011;3942;51.518;6.912;2023-04-06T05:58:59;15.82;;;9.13;;
7795;SDS011;3942;51.518;6.912;2023-04-06T06:04:01;17.13;;;8.80;;
7795;SDS011;3942;51.518;6.912;2023-04-06T06:09:03;18.13;;;8.93;;
7795;SDS011;3942;51.518;6.912;2023-04-06T06:14:07;16.30;;;8.10;;
7795;SDS011;3942;51.518;6.912;2023-04-06T06:19:09;14.75;;;9.23;;
7795;SDS011;3942;51.518;6.912;2023-04-06T06:24:11;13.25;;;8.40;;
7795;SDS011;3942;51.518;6.912;2023-04-06T06:29:14;18.55;;;9.18;;
7795;SDS011;3942;51.518;6.912;2023-04-06T06:34:17;18.88;;;11.18;;
7795;SDS011;3942;51.518;6.912;2023-04-06T06:39:19;19.83;;;10.00;;
7795;SDS011;3942;51.518;6.912;2023-04-06T06:44:23;14.60;;;9.10;;
7795;SDS011;3942;51.518;6.912;2023-04-06T06:49:26;17.52;;;9.43;;
7795;SDS011;3942;51.518;6.912;2023-04-06T06:54:28;12.82;;;8.00;;
7795;SDS011;3942;51.518;6.912;2023-04-06T06:59:31;19.77;;;9.07;;
7795;SDS011;3942;51.518;6.912;2023-04-06T07:04:33;13.85;;;8.77;;
7795;SDS011;3942;51.518;6.912;2023-04-06T07:09:35;14.77;;;9.32;;
7795;SDS011;3942;51.518;6.912;2023-04-06T07:14:39;14.07;;;8.57;;
7795;SDS011;3942;51.518;6.912;2023-04-06T07:19:41;13.30;;;8.90;;
7795;SDS011;3942;51.518;6.912;2023-04-06T07:24:44;13.48;;;8.07;;
7795;SDS011;3942;51.518;6.912;2023-04-06T07:29:47;16.73;;;9.45;;
7795;SDS011;3942;51.518;6.912;2023-04-06T07:34:49;18.77;;;9.85;;
7795;SDS011;3942;51.518;6.912;2023-04-06T07:39:52;14.02;;;9.13;;
7795;SDS011;3942;51.518;6.912;2023-04-06T07:44:55;17.90;;;9.23;;
7795;SDS011;3942;51.518;6.912;2023-04-06T07:49:58;14.95;;;9.85;;
7795;SDS011;3942;51.518;6.912;2023-04-06T07:55:00;20.88;;;11.18;;
7795;SDS011;3942;51.518;6.912;2023-04-06T08:00:04;16.90;;;10.77;;
7795;SDS011;3942;51.518;6.912;2023-04-06T08:05:06;16.40;;;10.27;;
7795;SDS011;3942;51.518;6.912;2023-04-06T08:10:09;19.38;;;9.57;;
7795;SDS011;3942;51.518;6.912;2023-04-06T08:15:13;23.30;;;12.93;;
7795;SDS011;3942;51.518;6.912;2023-04-06T08:20:15;21.00;;;12.05;;
7795;SDS011;3942;51.518;6.912;2023-04-06T08:25:17;20.48;;;11.60;;
7795;SDS011;3942;51.518;6.912;2023-04-06T08:30:21;19.92;;;11.45;;
7795;SDS011;3942;51.518;6.912;2023-04-06T08:35:23;17.00;;;11.18;;
7795;SDS011;3942;51.518;6.912;2023-04-06T08:40:25;21.17;;;11.27;;
7795;SDS011;3942;51.518;6.912;2023-04-06T08:45:29;19.17;;;11.23;;
7795;SDS011;3942;51.518;6.912;2023-04-06T08:50:32;21.98;;;11.40;;
7795;SDS011;3942;51.518;6.912;2023-04-06T08:55:35;17.30;;;10.45;;
7795;SDS011;3942;51.518;6.912;2023-04-06T09:00:39;18.95;;;11.48;;
7795;SDS011;3942;51.518;6.912;2023-04-06T09:05:41;20.08;;;12.30;;
7795;SDS011;3942;51.518;6.912;2023-04-06T09:10:43;17.77;;;11.60;;
7795;SDS011;3942;51.518;6.912;2023-04-06T09:15:47;20.35;;;12.20;;
7795;SDS011;3942;51.518;6.912;2023-04-06T09:21:02;21.52;;;12.75;;
7795;SDS011;3942;51.518;6.912;2023-04-06T09:26:09;16.17;;;10.75;;
7795;SDS011;3942;51.518;6.912;2023-04-06T09:31:13;20.58;;;11.55;;
7795;SDS011;3942;51.518;6.912;2023-04-06T09:36:15;17.55;;;11.07;;
7795;SDS011;3942;51.518;6.912;2023-04-06T09:41:20;20.17;;;12.05;;
7795;SDS011;3942;51.518;6.912;2023-04-06T09:46:24;22.70;;;13.02;;
7795;SDS011;3942;51.518;6.912;2023-04-06T09:51:26;19.38;;;10.40;;
7795;SDS011;3942;51.518;6.912;2023-04-06T09:56:33;21.63;;;12.48;;
7795;SDS011;3942;51.518;6.912;2023-04-06T10:01:42;18.88;;;11.95;;
7795;SDS011;3942;51.518;6.912;2023-04-06T10:06:44;21.33;;;11.45;;
7795;SDS011;3942;51.518;6.912;2023-04-06T10:11:52;19.95;;;12.57;;
7795;SDS011;3942;51.518;6.912;2023-04-06T10:16:55;20.92;;;12.32;;
7795;SDS011;3942;51.518;6.912;2023-04-06T10:21:57;21.15;;;13.40;;
7795;SDS011;3942;51.518;6.912;2023-04-06T10:27:01;20.40;;;12.68;;
7795;SDS011;3942;51.518;6.912;2023-04-06T10:32:05;18.80;;;12.07;;
7795;SDS011;3942;51.518;6.912;2023-04-06T10:37:11;24.58;;;13.10;;
7795;SDS011;3942;51.518;6.912;2023-04-06T10:42:13;22.17;;;11.93;;
7795;SDS011;3942;51.518;6.912;2023-04-06T10:47:17;23.30;;;13.45;;
7795;SDS011;3942;51.518;6.912;2023-04-06T10:52:19;22.45;;;13.70;;
7795;SDS011;3942;51.518;6.912;2023-04-06T10:57:27;22.80;;;13.18;;
7795;SDS011;3942;51.518;6.912;2023-04-06T11:02:32;20.90;;;13.05;;
7795;SDS011;3942;51.518;6.912;2023-04-06T11:07:34;20.17;;;11.50;;
7795;SDS011;3942;51.518;6.912;2023-04-06T11:12:36;20.02;;;10.85;;
7795;SDS011;3942;51.518;6.912;2023-04-06T11:17:39;23.55;;;12.73;;
7795;SDS011;3942;51.518;6.912;2023-04-06T11:22:49;27.75;;;13.20;;
7795;SDS011;3942;51.518;6.912;2023-04-06T11:27:51;27.95;;;15.27;;
7795;SDS011;3942;51.518;6.912;2023-04-06T11:32:59;25.20;;;13.52;;
7795;SDS011;3942;51.518;6.912;2023-04-06T11:38:02;27.70;;;13.02;;
7795;SDS011;3942;51.518;6.912;2023-04-06T11:43:05;23.75;;;12.35;;
7795;SDS011;3942;51.518;6.912;2023-04-06T11:48:17;19.20;;;11.48;;
7795;SDS011;3942;51.518;6.912;2023-04-06T11:53:19;31.85;;;17.30;;
7795;SDS011;3942;51.518;6.912;2023-04-06T11:58:21;25.25;;;13.05;;
7795;SDS011;3942;51.518;6.912;2023-04-06T12:03:25;25.20;;;12.90;;
7795;SDS011;3942;51.518;6.912;2023-04-06T12:08:26;24.77;;;12.98;;
7795;SDS011;3942;51.518;6.912;2023-04-06T12:13:28;26.75;;;13.40;;
7795;SDS011;3942;51.518;6.912;2023-04-06T12:18:32;23.83;;;13.77;;
7795;SDS011;3942;51.518;6.912;2023-04-06T12:23:34;29.25;;;16.38;;
7795;SDS011;3942;51.518;6.912;2023-04-06T12:28:37;26.17;;;14.38;;
7795;SDS011;3942;51.518;6.912;2023-04-06T12:33:40;28.25;;;16.08;;
7795;SDS011;3942;51.518;6.912;2023-04-06T12:38:42;28.23;;;15.13;;
7795;SDS011;3942;51.518;6.912;2023-04-06T12:43:45;29.02;;;16.00;;
7795;SDS011;3942;51.518;6.912;2023-04-06T12:48:49;28.75;;;15.07;;
7795;SDS011;3942;51.518;6.912;2023-04-06T12:53:53;22.27;;;14.35;;
7795;SDS011;3942;51.518;6.912;2023-04-06T12:58:55;22.90;;;13.02;;
7795;SDS011;3942;51.518;6.912;2023-04-06T13:03:59;37.08;;;20.92;;
7795;SDS011;3942;51.518;6.912;2023-04-06T13:09:00;24.88;;;14.30;;
7795;SDS011;3942;51.518;6.912;2023-04-06T13:14:04;21.35;;;12.05;;
7795;SDS011;3942;51.518;6.912;2023-04-06T13:19:07;20.42;;;11.02;;
7795;SDS011;3942;51.518;6.912;2023-04-06T13:24:10;19.58;;;11.63;;
7795;SDS011;3942;51.518;6.912;2023-04-06T13:29:12;18.13;;;10.43;;
7795;SDS011;3942;51.518;6.912;2023-04-06T13:34:16;15.98;;;10.02;;
7795;SDS011;3942;51.518;6.912;2023-04-06T13:39:18;16.77;;;9.88;;
7795;SDS011;3942;51.518;6.912;2023-04-06T13:44:20;19.23;;;10.65;;
7795;SDS011;3942;51.518;6.912;2023-04-06T13:49:24;15.20;;;9.77;;
7795;SDS011;3942;51.518;6.912;2023-04-06T13:54:26;19.05;;;9.50;;
7795;SDS011;3942;51.518;6.912;2023-04-06T13:59:31;12.05;;;7.95;;
7795;SDS011;3942;51.518;6.912;2023-04-06T14:04:35;11.77;;;7.38;;
7795;SDS011;3942;51.518;6.912;2023-04-06T14:09:38;16.63;;;9.35;;
7795;SDS011;3942;51.518;6.912;2023-04-06T14:14:40;15.82;;;8.70;;
7795;SDS011;3942;51.518;6.912;2023-04-06T14:19:43;15.43;;;9.02;;
7795;SDS011;3942;51.518;6.912;2023-04-06T14:24:45;18.27;;;9.13;;
7795;SDS011;3942;51.518;6.912;2023-04-06T14:29:47;17.02;;;8.48;;
7795;SDS011;3942;51.518;6.912;2023-04-06T14:34:51;15.30;;;8.93;;
7795;SDS011;3942;51.518;6.912;2023-04-06T14:39:53;14.32;;;8.40;;
7795;SDS011;3942;51.518;6.912;2023-04-06T14:44:55;30.83;;;18.45;;
7795;SDS011;3942;51.518;6.912;2023-04-06T14:49:58;11.00;;;8.38;;
7795;SDS011;3942;51.518;6.912;2023-04-06T14:55:00;13.52;;;8.55;;
7795;SDS011;3942;51.518;6.912;2023-04-06T15:00:02;14.23;;;9.02;;
7795;SDS011;3942;51.518;6.912;2023-04-06T15:05:09;13.43;;;8.82;;
7795;SDS011;3942;51.518;6.912;2023-04-06T15:10:12;13.30;;;8.35;;
7795;SDS011;3942;51.518;6.912;2023-04-06T15:15:14;14.43;;;8.50;;
7795;SDS011;3942;51.518;6.912;2023-04-06T15:20:17;12.75;;;8.10;;
7795;SDS011;3942;51.518;6.912;2023-04-06T15:25:19;12.43;;;8.10;;
7795;SDS011;3942;51.518;6.912;2023-04-06T15:30:22;13.63;;;8.05;;
7795;SDS011;3942;51.518;6.912;2023-04-06T15:35:25;14.30;;;8.82;;
7795;SDS011;3942;51.518;6.912;2023-04-06T15:40:28;12.18;;;7.90;;
7795;SDS011;3942;51.518;6.912;2023-04-06T15:45:30;17.52;;;8.32;;
7795;SDS011;3942;51.518;6.912;2023-04-06T15:50:34;14.35;;;8.38;;
7795;SDS011;3942;51.518;6.912;2023-04-06T15:55:36;17.80;;;8.38;;
7795;SDS011;3942;51.518;6.912;2023-04-06T16:00:38;16.00;;;8.38;;
7795;SDS011;3942;51.518;6.912;2023-04-06T16:05:42;15.05;;;9.43;;
7795;SDS011;3942;51.518;6.912;2023-04-06T16:10:44;16.23;;;8.55;;
7795;SDS011;3942;51.518;6.912;2023-04-06T16:15:48;12.77;;;7.85;;
7795;SDS011;3942;51.518;6.912;2023-04-06T16:20:51;14.85;;;8.00;;
7795;SDS011;3942;51.518;6.912;2023-04-06T16:25:53;11.23;;;6.57;;
7795;SDS011;3942;51.518;6.912;2023-04-06T16:30:56;10.00;;;6.20;;
7795;SDS011;3942;51.518;6.912;2023-04-06T16:35:59;9.60;;;5.90;;
7795;SDS011;3942;51.518;6.912;2023-04-06T16:41:02;12.48;;;7.30;;
7795;SDS011;3942;51.518;6.912;2023-04-06T16:46:04;11.68;;;6.80;;
7795;SDS011;3942;51.518;6.912;2023-04-06T16:51:07;9.98;;;6.07;;
7795;SDS011;3942;51.518;6.912;2023-04-06T16:56:10;10.43;;;6.28;;
7795;SDS011;3942;51.518;6.912;2023-04-06T17:01:18;12.57;;;7.63;;
7795;SDS011;3942;51.518;6.912;2023-04-06T17:06:22;11.05;;;6.82;;
7795;SDS011;3942;51.518;6.912;2023-04-06T17:11:26;11.15;;;6.78;;
7795;SDS011;3942;51.518;6.912;2023-04-06T17:16:28;13.80;;;7.25;;
7795;SDS011;3942;51.518;6.912;2023-04-06T17:21:31;12.10;;;6.45;;
7795;SDS011;3942;51.518;6.912;2023-04-06T17:26:33;12.88;;;6.90;;
7795;SDS011;3942;51.518;6.912;2023-04-06T17:31:35;10.48;;;5.95;;
7795;SDS011;3942;51.518;6.912;2023-04-06T17:36:39;9.63;;;5.80;;
7795;SDS011;3942;51.518;6.912;2023-04-06T17:41:41;9.63;;;5.70;;
7795;SDS011;3942;51.518;6.912;2023-04-06T17:46:43;8.15;;;5.68;;
7795;SDS011;3942;51.518;6.912;2023-04-06T17:51:46;11.23;;;7.25;;
7795;SDS011;3942;51.518;6.912;2023-04-06T17:56:48;7.70;;;5.28;;
7795;SDS011;3942;51.518;6.912;2023-04-06T18:01:52;11.98;;;6.60;;
7795;SDS011;3942;51.518;6.912;2023-04-06T18:06:56;9.77;;;6.57;;
7795;SDS011;3942;51.518;6.912;2023-04-06T18:11:57;13.40;;;6.32;;
7795;SDS011;3942;51.518;6.912;2023-04-06T18:17:00;10.82;;;6.55;;
7795;SDS011;3942;51.518;6.912;2023-04-06T18:22:03;9.80;;;6.32;;
7795;SDS011;3942;51.518;6.912;2023-04-06T18:27:05;15.27;;;7.28;;
7795;SDS011;3942;51.518;6.912;2023-04-06T18:32:07;11.82;;;6.38;;
7795;SDS011;3942;51.518;6.912;2023-04-06T18:37:10;13.57;;;8.48;;
7795;SDS011;3942;51.518;6.912;2023-04-06T18:42:12;12.13;;;6.55;;
7795;SDS011;3942;51.518;6.912;2023-04-06T18:47:14;11.70;;;6.20;;
7795;SDS011;3942;51.518;6.912;2023-04-06T18:52:18;11.38;;;6.90;;
7795;SDS011;3942;51.518;6.912;2023-04-06T18:57:20;11.45;;;7.07;;
7795;SDS011;3942;51.518;6.912;2023-04-06T19:02:21;11.25;;;6.75;;
7795;SDS011;3942;51.518;6.912;2023-04-06T19:07:25;10.40;;;6.57;;
7795;SDS011;3942;51.518;6.912;2023-04-06T19:12:27;13.93;;;8.27;;
7795;SDS011;3942;51.518;6.912;2023-04-06T19:17:29;11.77;;;7.57;;
7795;SDS011;3942;51.518;6.912;2023-04-06T19:22:34;14.15;;;9.27;;
7795;SDS011;3942;51.518;6.912;2023-04-06T19:27:36;13.57;;;8.80;;
7795;SDS011;3942;51.518;6.912;2023-04-06T19:32:38;15.00;;;9.60;;
7795;SDS011;3942;51.518;6.912;2023-04-06T19:37:42;13.40;;;9.45;;
7795;SDS011;3942;51.518;6.912;2023-04-06T19:42:44;13.48;;;9.30;;
7795;SDS011;3942;51.518;6.912;2023-04-06T19:47:45;15.32;;;9.07;;
7795;SDS011;3942;51.518;6.912;2023-04-06T19:52:49;15.90;;;9.07;;
7795;SDS011;3942;51.518;6.912;2023-04-06T19:57:52;14.20;;;8.82;;
7795;SDS011;3942;51.518;6.912;2023-04-06T20:02:54;12.80;;;8.60;;
7795;SDS011;3942;51.518;6.912;2023-04-06T20:07:58;12.00;;;7.68;;
7795;SDS011;3942;51.518;6.912;2023-04-06T20:12:59;12.43;;;8.32;;
7795;SDS011;3942;51.518;6.912;2023-04-06T20:18:01;11.10;;;7.82;;
7795;SDS011;3942;51.518;6.912;2023-04-06T20:23:05;10.25;;;7.05;;
7795;SDS011;3942;51.518;6.912;2023-04-06T20:28:07;15.93;;;9.68;;
7795;SDS011;3942;51.518;6.912;2023-04-06T20:33:09;10.23;;;7.53;;
7795;SDS011;3942;51.518;6.912;2023-04-06T20:38:13;11.27;;;7.25;;
7795;SDS011;3942;51.518;6.912;2023-04-06T20:43:15;10.13;;;6.60;;
7795;SDS011;3942;51.518;6.912;2023-04-06T20:48:19;12.90;;;8.30;;
7795;SDS011;3942;51.518;6.912;2023-04-06T20:53:23;11.80;;;7.47;;
7795;SDS011;3942;51.518;6.912;2023-04-06T20:58:25;11.45;;;7.20;;
7795;SDS011;3942;51.518;6.912;2023-04-06T21:03:27;11.35;;;7.57;;
7795;SDS011;3942;51.518;6.912;2023-04-06T21:08:30;13.35;;;8.15;;
7795;SDS011;3942;51.518;6.912;2023-04-06T21:13:32;12.52;;;7.45;;
7795;SDS011;3942;51.518;6.912;2023-04-06T21:18:35;12.85;;;7.05;;
7795;SDS011;3942;51.518;6.912;2023-04-06T21:23:38;11.40;;;7.97;;
7795;SDS011;3942;51.518;6.912;2023-04-06T21:28:40;13.75;;;9.02;;
7795;SDS011;3942;51.518;6.912;2023-04-06T21:33:42;14.35;;;8.90;;
7795;SDS011;3942;51.518;6.912;2023-04-06T21:38:45;14.68;;;9.30;;
7795;SDS011;3942;51.518;6.912;2023-04-06T21:43:47;14.02;;;8.93;;
7795;SDS011;3942;51.518;6.912;2023-04-06T21:48:49;15.13;;;9.48;;
7795;SDS011;3942;51.518;6.912;2023-04-06T21:53:53;12.90;;;9.88;;
7795;SDS011;3942;51.518;6.912;2023-04-06T21:58:55;15.57;;;10.50;;
7795;SDS011;3942;51.518;6.912;2023-04-06T22:03:57;18.30;;;11.05;;
7795;SDS011;3942;51.518;6.912;2023-04-06T22:09:02;14.32;;;9.68;;
7795;SDS011;3942;51.518;6.912;2023-04-06T22:14:04;14.95;;;9.85;;
7795;SDS011;3942;51.518;6.912;2023-04-06T22:19:06;14.13;;;10.25;;
7795;SDS011;3942;51.518;6.912;2023-04-06T22:24:09;15.40;;;10.80;;
7795;SDS011;3942;51.518;6.912;2023-04-06T22:29:11;16.42;;;10.73;;
7795;SDS011;3942;51.518;6.912;2023-04-06T22:34:13;17.58;;;11.38;;
7795;SDS011;3942;51.518;6.912;2023-04-06T22:39:17;16.00;;;10.85;;
7795;SDS011;3942;51.518;6.912;2023-04-06T22:44:19;16.55;;;11.10;;
7795;SDS011;3942;51.518;6.912;2023-04-06T22:49:22;15.88;;;10.93;;
7795;SDS011;3942;51.518;6.912;2023-04-06T22:54:25;15.68;;;11.45;;
7795;SDS011;3942;51.518;6.912;2023-04-06T22:59:27;18.33;;;11.57;;
7795;SDS011;3942;51.518;6.912;2023-04-06T23:04:29;16.42;;;11.15;;
7795;SDS011;3942;51.518;6.912;2023-04-06T23:09:32;18.35;;;12.27;;
7795;SDS011;3942;51.518;6.912;2023-04-06T23:14:34;16.67;;;11.50;;
7795;SDS011;3942;51.518;6.912;2023-04-06T23:19:36;17.35;;;12.10;;
7795;SDS011;3942;51.518;6.912;2023-04-06T23:24:39;18.00;;;12.23;;
7795;SDS011;3942;51.518;6.912;2023-04-06T23:29:42;16.10;;;11.90;;
7795;SDS011;3942;51.518;6.912;2023-04-06T23:34:43;20.15;;;13.85;;
7795;SDS011;3942;51.518;6.912;2023-04-06T23:39:47;21.17;;;14.43;;
7795;SDS011;3942;51.518;6.912;2023-04-06T23:44:49;22.30;;;15.60;;
7795;SDS011;3942;51.518;6.912;2023-04-06T23:49:51;20.45;;;14.02;;
7795;SDS011;3942;51.518;6.912;2023-04-06T23:54:54;21.83;;;16.80;;
7795;SDS011;3942;51.518;6.912;2023-04-06T23:59:56;23.10;;;16.73;;
